sensor_id;sensor_type;location;lat;lon;timestamp;pressure;altitude;pressure_sealevel;temperature;humidity
81999;BME280;71598;46.516;-122.928;2023-07-31T00:00:12;100521.98;;;19.10;24.37
81999;BME280;71598;46.516;-122.928;2023-07-31T00:02:37;100515.17;;;19.24;24.37
81999;BME280;71598;46.516;-122.928;2023-07-31T00:05:02;100516.86;;;19.36;24.35
81999;BME280;71598;46.516;-122.928;2023-07-31T00:07:27;100521.65;;;19.47;24.45
81999;BME280;71598;46.516;-122.928;2023-07-31T00:09:52;100521.09;;;19.47;24.41
81999;BME280;71598;46.516;-122.928;2023-07-31T00:12:18;100516.22;;;19.52;24.38
81999;BME280;71598;46.516;-122.928;2023-07-31T00:14:43;100516.76;;;19.48;24.40
81999;BME280;71598;46.516;-122.928;2023-07-31T00:17:08;100510.82;;;19.21;24.45
81999;BME280;71598;46.516;-122.928;2023-07-31T00:19:34;100509.14;;;19.34;24.44
81999;BME280;71598;46.516;-122.928;2023-07-31T00:22:00;100510.92;;;19.43;24.60
81999;BME280;71598;46.516;-122.928;2023-07-31T00:24:24;100511.86;;;19.28;24.55
81999;BME280;71598;46.516;-122.928;2023-07-31T00:26:49;100515.54;;;19.47;24.58
81999;BME280;71598;46.516;-122.928;2023-07-31T00:29:15;100515.54;;;19.57;24.44
81999;BME280;71598;46.516;-122.928;2023-07-31T00:31:40;100519.00;;;19.46;24.39
81999;BME280;71598;46.516;-122.928;2023-07-31T00:34:05;100520.08;;;19.46;24.36
81999;BME280;71598;46.516;-122.928;2023-07-31T00:36:31;100520.83;;;19.43;24.40
81999;BME280;71598;46.516;-122.928;2023-07-31T00:38:56;100520.05;;;19.41;24.40
81999;BME280;71598;46.516;-122.928;2023-07-31T00:41:21;100520.51;;;19.17;24.39
81999;BME280;71598;46.516;-122.928;2023-07-31T00:43:47;100520.77;;;19.60;24.36
81999;BME280;71598;46.516;-122.928;2023-07-31T00:46:12;100519.34;;;19.14;24.39
81999;BME280;71598;46.516;-122.928;2023-07-31T00:48:38;100519.72;;;19.54;24.34
81999;BME280;71598;46.516;-122.928;2023-07-31T00:51:04;100521.05;;;19.23;24.31
81999;BME280;71598;46.516;-122.928;2023-07-31T00:53:28;100519.94;;;19.48;24.34
81999;BME280;71598;46.516;-122.928;2023-07-31T00:55:54;100516.90;;;19.64;24.38
81999;BME280;71598;46.516;-122.928;2023-07-31T00:58:19;100509.54;;;19.53;24.28
81999;BME280;71598;46.516;-122.928;2023-07-31T01:00:44;100508.49;;;19.64;24.27
81999;BME280;71598;46.516;-122.928;2023-07-31T01:03:09;100509.63;;;19.59;24.32
81999;BME280;71598;46.516;-122.928;2023-07-31T01:05:43;100506.08;;;19.50;24.27
81999;BME280;71598;46.516;-122.928;2023-07-31T01:08:05;100505.75;;;19.63;24.18
81999;BME280;71598;46.516;-122.928;2023-07-31T01:10:29;100505.30;;;19.61;24.19
81999;BME280;71598;46.516;-122.928;2023-07-31T01:12:52;100504.70;;;19.72;24.20
81999;BME280;71598;46.516;-122.928;2023-07-31T01:15:16;100503.65;;;19.57;24.23
81999;BME280;71598;46.516;-122.928;2023-07-31T01:17:42;100503.86;;;19.32;24.27
81999;BME280;71598;46.516;-122.928;2023-07-31T01:20:11;100504.20;;;19.47;24.15
81999;BME280;71598;46.516;-122.928;2023-07-31T01:22:47;100504.97;;;19.59;24.21
81999;BME280;71598;46.516;-122.928;2023-07-31T01:25:09;100501.87;;;19.30;24.13
81999;BME280;71598;46.516;-122.928;2023-07-31T01:27:26;100503.06;;;19.75;24.17
81999;BME280;71598;46.516;-122.928;2023-07-31T01:29:53;100499.15;;;19.62;24.22
81999;BME280;71598;46.516;-122.928;2023-07-31T01:32:14;100499.69;;;19.81;24.22
81999;BME280;71598;46.516;-122.928;2023-07-31T01:34:38;100499.63;;;19.72;24.17
81999;BME280;71598;46.516;-122.928;2023-07-31T01:37:04;100500.20;;;19.69;24.19
81999;BME280;71598;46.516;-122.928;2023-07-31T01:39:29;100500.48;;;19.66;24.27
81999;BME280;71598;46.516;-122.928;2023-07-31T01:41:54;100506.27;;;19.76;24.17
81999;BME280;71598;46.516;-122.928;2023-07-31T01:44:20;100504.59;;;19.53;24.14
81999;BME280;71598;46.516;-122.928;2023-07-31T01:46:45;100507.49;;;19.68;24.07
81999;BME280;71598;46.516;-122.928;2023-07-31T01:49:10;100511.06;;;20.00;24.11
81999;BME280;71598;46.516;-122.928;2023-07-31T01:51:35;100509.43;;;19.72;24.03
81999;BME280;71598;46.516;-122.928;2023-07-31T01:54:00;100516.17;;;19.84;24.08
81999;BME280;71598;46.516;-122.928;2023-07-31T01:56:26;100520.35;;;20.13;23.98
81999;BME280;71598;46.516;-122.928;2023-07-31T01:58:53;100519.76;;;20.21;23.94
81999;BME280;71598;46.516;-122.928;2023-07-31T02:01:16;100525.14;;;19.73;24.14
81999;BME280;71598;46.516;-122.928;2023-07-31T02:03:41;100527.72;;;19.79;23.98
81999;BME280;71598;46.516;-122.928;2023-07-31T02:06:07;100526.29;;;19.98;24.04
81999;BME280;71598;46.516;-122.928;2023-07-31T02:08:32;100522.91;;;19.91;23.95
81999;BME280;71598;46.516;-122.928;2023-07-31T02:10:57;100527.32;;;19.71;23.93
81999;BME280;71598;46.516;-122.928;2023-07-31T02:13:23;100527.51;;;19.90;23.98
81999;BME280;71598;46.516;-122.928;2023-07-31T02:15:49;100529.16;;;20.07;24.00
81999;BME280;71598;46.516;-122.928;2023-07-31T02:18:13;100529.75;;;20.00;24.06
81999;BME280;71598;46.516;-122.928;2023-07-31T02:20:39;100531.30;;;19.82;24.03
81999;BME280;71598;46.516;-122.928;2023-07-31T02:23:05;100533.44;;;19.82;24.08
81999;BME280;71598;46.516;-122.928;2023-07-31T02:25:29;100530.82;;;19.88;24.02
81999;BME280;71598;46.516;-122.928;2023-07-31T02:27:55;100530.89;;;19.79;24.13
81999;BME280;71598;46.516;-122.928;2023-07-31T02:30:19;100529.48;;;20.53;24.05
81999;BME280;71598;46.516;-122.928;2023-07-31T02:32:45;100526.85;;;20.69;23.96
81999;BME280;71598;46.516;-122.928;2023-07-31T02:35:11;100531.23;;;20.74;23.93
81999;BME280;71598;46.516;-122.928;2023-07-31T02:37:37;100528.30;;;20.71;23.84
81999;BME280;71598;46.516;-122.928;2023-07-31T02:40:01;100527.95;;;20.59;23.87
81999;BME280;71598;46.516;-122.928;2023-07-31T02:42:26;100523.37;;;20.70;24.05
81999;BME280;71598;46.516;-122.928;2023-07-31T02:44:52;100525.58;;;20.78;23.83
81999;BME280;71598;46.516;-122.928;2023-07-31T02:47:17;100525.64;;;20.84;23.79
81999;BME280;71598;46.516;-122.928;2023-07-31T02:49:42;100529.38;;;20.67;23.77
81999;BME280;71598;46.516;-122.928;2023-07-31T02:52:08;100525.16;;;20.69;23.70
81999;BME280;71598;46.516;-122.928;2023-07-31T02:54:33;100530.23;;;21.14;23.75
81999;BME280;71598;46.516;-122.928;2023-07-31T02:57:01;100530.49;;;20.58;23.71
81999;BME280;71598;46.516;-122.928;2023-07-31T02:59:23;100530.99;;;20.82;23.88
81999;BME280;71598;46.516;-122.928;2023-07-31T03:01:48;100530.98;;;20.86;23.63
81999;BME280;71598;46.516;-122.928;2023-07-31T03:04:14;100534.30;;;21.06;23.55
81999;BME280;71598;46.516;-122.928;2023-07-31T03:06:39;100536.11;;;20.82;23.59
81999;BME280;71598;46.516;-122.928;2023-07-31T03:09:04;100536.97;;;20.62;23.62
81999;BME280;71598;46.516;-122.928;2023-07-31T03:11:29;100539.01;;;20.82;23.67
81999;BME280;71598;46.516;-122.928;2023-07-31T03:13:54;100541.14;;;20.84;23.77
81999;BME280;71598;46.516;-122.928;2023-07-31T03:16:19;100542.53;;;21.18;23.72
81999;BME280;71598;46.516;-122.928;2023-07-31T03:18:45;100544.30;;;20.93;23.71
81999;BME280;71598;46.516;-122.928;2023-07-31T03:21:12;100550.31;;;20.97;23.75
81999;BME280;71598;46.516;-122.928;2023-07-31T03:23:37;100550.81;;;20.75;23.77
81999;BME280;71598;46.516;-122.928;2023-07-31T03:26:03;100550.53;;;20.90;23.73
81999;BME280;71598;46.516;-122.928;2023-07-31T03:28:27;100549.29;;;20.99;23.67
81999;BME280;71598;46.516;-122.928;2023-07-31T03:30:53;100553.14;;;20.76;23.65
81999;BME280;71598;46.516;-122.928;2023-07-31T03:33:18;100553.34;;;20.69;23.67
81999;BME280;71598;46.516;-122.928;2023-07-31T03:35:43;100555.37;;;20.89;23.52
81999;BME280;71598;46.516;-122.928;2023-07-31T03:38:09;100556.68;;;20.78;23.70
81999;BME280;71598;46.516;-122.928;2023-07-31T03:40:34;100558.56;;;20.88;23.72
81999;BME280;71598;46.516;-122.928;2023-07-31T03:42:59;100560.67;;;20.75;23.72
81999;BME280;71598;46.516;-122.928;2023-07-31T03:45:24;100559.98;;;20.96;23.56
81999;BME280;71598;46.516;-122.928;2023-07-31T03:47:50;100562.98;;;20.85;23.65
81999;BME280;71598;46.516;-122.928;2023-07-31T03:50:16;100562.85;;;20.96;23.66
81999;BME280;71598;46.516;-122.928;2023-07-31T03:52:41;100566.57;;;20.68;23.68
81999;BME280;71598;46.516;-122.928;2023-07-31T03:55:05;100570.93;;;20.81;23.66
81999;BME280;71598;46.516;-122.928;2023-07-31T03:57:30;100571.34;;;20.96;23.65
81999;BME280;71598;46.516;-122.928;2023-07-31T03:59:55;100568.83;;;20.75;23.69
81999;BME280;71598;46.516;-122.928;2023-07-31T04:02:20;100567.00;;;20.78;23.61
81999;BME280;71598;46.516;-122.928;2023-07-31T04:04:45;100563.58;;;21.02;23.61
81999;BME280;71598;46.516;-122.928;2023-07-31T04:07:11;100563.51;;;20.63;23.66
81999;BME280;71598;46.516;-122.928;2023-07-31T04:09:36;100564.35;;;20.84;23.67
81999;BME280;71598;46.516;-122.928;2023-07-31T04:12:01;100566.04;;;20.86;23.68
81999;BME280;71598;46.516;-122.928;2023-07-31T04:14:27;100568.28;;;20.64;23.70
81999;BME280;71598;46.516;-122.928;2023-07-31T04:16:52;100567.39;;;20.75;23.57
81999;BME280;71598;46.516;-122.928;2023-07-31T04:19:17;100573.06;;;20.55;23.72
81999;BME280;71598;46.516;-122.928;2023-07-31T04:21:42;100572.24;;;21.09;23.71
81999;BME280;71598;46.516;-122.928;2023-07-31T04:24:08;100574.05;;;20.86;23.73
81999;BME280;71598;46.516;-122.928;2023-07-31T04:26:33;100578.55;;;20.82;23.76
81999;BME280;71598;46.516;-122.928;2023-07-31T04:28:58;100582.03;;;20.91;23.75
81999;BME280;71598;46.516;-122.928;2023-07-31T04:31:24;100583.26;;;20.78;23.75
81999;BME280;71598;46.516;-122.928;2023-07-31T04:33:49;100584.36;;;20.80;23.73
81999;BME280;71598;46.516;-122.928;2023-07-31T04:36:14;100582.37;;;20.57;23.75
81999;BME280;71598;46.516;-122.928;2023-07-31T04:38:40;100587.23;;;20.82;23.73
81999;BME280;71598;46.516;-122.928;2023-07-31T04:41:05;100586.40;;;20.69;23.75
81999;BME280;71598;46.516;-122.928;2023-07-31T04:43:31;100585.52;;;20.77;23.74
81999;BME280;71598;46.516;-122.928;2023-07-31T04:45:56;100588.81;;;21.04;23.59
81999;BME280;71598;46.516;-122.928;2023-07-31T04:48:21;100591.84;;;20.82;23.74
81999;BME280;71598;46.516;-122.928;2023-07-31T04:50:46;100593.72;;;20.75;23.73
81999;BME280;71598;46.516;-122.928;2023-07-31T04:53:12;100595.88;;;20.71;23.72
81999;BME280;71598;46.516;-122.928;2023-07-31T04:55:37;100594.45;;;20.88;23.66
81999;BME280;71598;46.516;-122.928;2023-07-31T04:58:02;100592.90;;;20.63;23.61
81999;BME280;71598;46.516;-122.928;2023-07-31T05:00:28;100592.80;;;20.96;23.62
81999;BME280;71598;46.516;-122.928;2023-07-31T05:02:53;100588.65;;;20.99;23.56
81999;BME280;71598;46.516;-122.928;2023-07-31T05:05:18;100589.87;;;20.84;23.65
81999;BME280;71598;46.516;-122.928;2023-07-31T05:07:44;100589.89;;;20.81;23.66
81999;BME280;71598;46.516;-122.928;2023-07-31T05:10:09;100587.31;;;21.06;23.65
81999;BME280;71598;46.516;-122.928;2023-07-31T05:12:34;100585.58;;;20.91;23.66
81999;BME280;71598;46.516;-122.928;2023-07-31T05:14:59;100588.83;;;20.87;23.68
81999;BME280;71598;46.516;-122.928;2023-07-31T05:17:24;100589.31;;;20.77;23.66
81999;BME280;71598;46.516;-122.928;2023-07-31T05:19:50;100588.72;;;20.78;23.66
81999;BME280;71598;46.516;-122.928;2023-07-31T05:22:15;100590.36;;;20.65;23.68
81999;BME280;71598;46.516;-122.928;2023-07-31T05:24:41;100591.74;;;20.86;23.58
81999;BME280;71598;46.516;-122.928;2023-07-31T05:27:07;100589.35;;;20.71;23.50
81999;BME280;71598;46.516;-122.928;2023-07-31T05:29:31;100587.50;;;20.76;23.52
81999;BME280;71598;46.516;-122.928;2023-07-31T05:31:56;100586.33;;;20.63;23.45
81999;BME280;71598;46.516;-122.928;2023-07-31T05:34:22;100586.66;;;20.80;23.54
81999;BME280;71598;46.516;-122.928;2023-07-31T05:36:47;100585.36;;;20.87;23.61
81999;BME280;71598;46.516;-122.928;2023-07-31T05:39:13;100585.16;;;20.51;23.67
81999;BME280;71598;46.516;-122.928;2023-07-31T05:41:38;100584.55;;;20.72;23.64
81999;BME280;71598;46.516;-122.928;2023-07-31T05:44:04;100581.26;;;20.86;23.67
81999;BME280;71598;46.516;-122.928;2023-07-31T05:46:30;100585.26;;;20.47;23.68
81999;BME280;71598;46.516;-122.928;2023-07-31T05:48:55;100586.60;;;20.63;23.73
81999;BME280;71598;46.516;-122.928;2023-07-31T05:51:20;100585.19;;;20.77;23.70
81999;BME280;71598;46.516;-122.928;2023-07-31T05:53:46;100586.32;;;20.73;23.72
81999;BME280;71598;46.516;-122.928;2023-07-31T05:56:11;100586.10;;;20.57;23.73
81999;BME280;71598;46.516;-122.928;2023-07-31T05:58:36;100586.30;;;20.89;23.73
81999;BME280;71598;46.516;-122.928;2023-07-31T06:01:02;100584.54;;;20.57;23.77
81999;BME280;71598;46.516;-122.928;2023-07-31T06:03:27;100583.81;;;20.34;23.79
81999;BME280;71598;46.516;-122.928;2023-07-31T06:05:52;100587.17;;;20.51;23.79
81999;BME280;71598;46.516;-122.928;2023-07-31T06:08:18;100588.08;;;20.81;23.81
81999;BME280;71598;46.516;-122.928;2023-07-31T06:10:44;100588.30;;;20.67;23.82
81999;BME280;71598;46.516;-122.928;2023-07-31T06:13:09;100586.38;;;20.54;23.83
81999;BME280;71598;46.516;-122.928;2023-07-31T06:15:34;100593.51;;;20.55;23.82
81999;BME280;71598;46.516;-122.928;2023-07-31T06:18:00;100596.36;;;20.64;23.84
81999;BME280;71598;46.516;-122.928;2023-07-31T06:20:25;100598.10;;;20.52;23.83
81999;BME280;71598;46.516;-122.928;2023-07-31T06:22:51;100596.47;;;20.33;23.79
81999;BME280;71598;46.516;-122.928;2023-07-31T06:25:17;100599.36;;;20.54;23.64
81999;BME280;71598;46.516;-122.928;2023-07-31T06:27:41;100601.07;;;20.70;23.76
81999;BME280;71598;46.516;-122.928;2023-07-31T06:30:08;100596.96;;;20.57;23.76
81999;BME280;71598;46.516;-122.928;2023-07-31T06:32:32;100597.48;;;20.54;23.76
81999;BME280;71598;46.516;-122.928;2023-07-31T06:34:58;100595.82;;;20.41;23.77
81999;BME280;71598;46.516;-122.928;2023-07-31T06:37:23;100592.75;;;20.66;23.74
81999;BME280;71598;46.516;-122.928;2023-07-31T06:39:48;100588.62;;;20.69;23.71
81999;BME280;71598;46.516;-122.928;2023-07-31T06:42:14;100591.77;;;20.57;23.71
81999;BME280;71598;46.516;-122.928;2023-07-31T06:44:40;100593.91;;;20.69;23.69
81999;BME280;71598;46.516;-122.928;2023-07-31T06:47:06;100594.80;;;20.41;23.71
81999;BME280;71598;46.516;-122.928;2023-07-31T06:49:31;100597.05;;;20.65;23.69
81999;BME280;71598;46.516;-122.928;2023-07-31T06:51:56;100599.68;;;20.57;23.73
81999;BME280;71598;46.516;-122.928;2023-07-31T06:54:22;100598.19;;;20.66;23.67
81999;BME280;71598;46.516;-122.928;2023-07-31T06:56:47;100600.80;;;20.54;23.65
81999;BME280;71598;46.516;-122.928;2023-07-31T06:59:13;100601.25;;;20.55;23.66
81999;BME280;71598;46.516;-122.928;2023-07-31T07:01:38;100602.43;;;20.48;23.61
81999;BME280;71598;46.516;-122.928;2023-07-31T07:04:03;100603.30;;;20.54;23.60
81999;BME280;71598;46.516;-122.928;2023-07-31T07:06:29;100602.70;;;20.52;23.71
81999;BME280;71598;46.516;-122.928;2023-07-31T07:08:55;100603.98;;;20.42;23.68
81999;BME280;71598;46.516;-122.928;2023-07-31T07:11:20;100602.54;;;20.53;23.68
81999;BME280;71598;46.516;-122.928;2023-07-31T07:13:45;100607.92;;;20.31;23.66
81999;BME280;71598;46.516;-122.928;2023-07-31T07:16:10;100608.08;;;20.40;23.59
81999;BME280;71598;46.516;-122.928;2023-07-31T07:18:36;100607.99;;;20.35;23.60
81999;BME280;71598;46.516;-122.928;2023-07-31T07:21:01;100609.02;;;20.40;23.63
81999;BME280;71598;46.516;-122.928;2023-07-31T07:23:26;100609.50;;;20.43;23.78
81999;BME280;71598;46.516;-122.928;2023-07-31T07:25:52;100608.28;;;20.38;23.70
81999;BME280;71598;46.516;-122.928;2023-07-31T07:28:17;100608.89;;;20.42;23.73
81999;BME280;71598;46.516;-122.928;2023-07-31T07:30:42;100613.28;;;20.29;23.74
81999;BME280;71598;46.516;-122.928;2023-07-31T07:33:08;100612.87;;;20.25;23.76
81999;BME280;71598;46.516;-122.928;2023-07-31T07:35:34;100611.97;;;20.26;23.75
81999;BME280;71598;46.516;-122.928;2023-07-31T07:37:58;100611.44;;;20.15;23.76
81999;BME280;71598;46.516;-122.928;2023-07-31T07:40:23;100605.91;;;20.24;23.74
81999;BME280;71598;46.516;-122.928;2023-07-31T07:42:50;100608.19;;;20.21;23.74
81999;BME280;71598;46.516;-122.928;2023-07-31T07:45:15;100607.18;;;20.15;23.75
81999;BME280;71598;46.516;-122.928;2023-07-31T07:47:41;100608.01;;;20.36;23.74
81999;BME280;71598;46.516;-122.928;2023-07-31T07:50:06;100607.16;;;20.12;23.80
81999;BME280;71598;46.516;-122.928;2023-07-31T07:52:31;100606.87;;;20.12;23.74
81999;BME280;71598;46.516;-122.928;2023-07-31T07:54:56;100605.11;;;20.17;23.75
81999;BME280;71598;46.516;-122.928;2023-07-31T07:57:21;100605.60;;;20.05;23.76
81999;BME280;71598;46.516;-122.928;2023-07-31T07:59:46;100606.67;;;20.27;23.75
81999;BME280;71598;46.516;-122.928;2023-07-31T08:02:11;100607.58;;;19.87;23.77
81999;BME280;71598;46.516;-122.928;2023-07-31T08:04:37;100606.27;;;20.01;23.76
81999;BME280;71598;46.516;-122.928;2023-07-31T08:07:03;100604.72;;;20.32;23.75
81999;BME280;71598;46.516;-122.928;2023-07-31T08:09:28;100603.61;;;20.31;23.75
81999;BME280;71598;46.516;-122.928;2023-07-31T08:11:54;100606.89;;;20.20;23.74
81999;BME280;71598;46.516;-122.928;2023-07-31T08:14:19;100602.98;;;19.99;23.75
81999;BME280;71598;46.516;-122.928;2023-07-31T08:16:45;100605.94;;;20.11;23.72
81999;BME280;71598;46.516;-122.928;2023-07-31T08:19:11;100603.86;;;20.06;23.72
81999;BME280;71598;46.516;-122.928;2023-07-31T08:21:36;100601.68;;;20.10;23.76
81999;BME280;71598;46.516;-122.928;2023-07-31T08:24:02;100596.59;;;20.26;23.77
81999;BME280;71598;46.516;-122.928;2023-07-31T08:26:28;100595.99;;;20.23;23.77
81999;BME280;71598;46.516;-122.928;2023-07-31T08:28:52;100595.45;;;19.90;23.78
81999;BME280;71598;46.516;-122.928;2023-07-31T08:31:21;100597.20;;;20.27;23.78
81999;BME280;71598;46.516;-122.928;2023-07-31T08:33:43;100600.68;;;20.16;23.78
81999;BME280;71598;46.516;-122.928;2023-07-31T08:36:09;100602.94;;;20.23;23.80
81999;BME280;71598;46.516;-122.928;2023-07-31T08:38:34;100600.54;;;20.24;23.79
81999;BME280;71598;46.516;-122.928;2023-07-31T08:40:59;100603.94;;;19.79;23.80
81999;BME280;71598;46.516;-122.928;2023-07-31T08:43:26;100605.07;;;20.19;23.79
81999;BME280;71598;46.516;-122.928;2023-07-31T08:45:51;100605.77;;;19.86;23.81
81999;BME280;71598;46.516;-122.928;2023-07-31T08:48:16;100604.04;;;20.14;23.75
81999;BME280;71598;46.516;-122.928;2023-07-31T08:50:41;100605.62;;;20.22;23.80
81999;BME280;71598;46.516;-122.928;2023-07-31T08:53:07;100605.53;;;19.93;23.78
81999;BME280;71598;46.516;-122.928;2023-07-31T08:55:34;100603.14;;;19.86;23.81
81999;BME280;71598;46.516;-122.928;2023-07-31T08:57:58;100602.45;;;20.05;23.82
81999;BME280;71598;46.516;-122.928;2023-07-31T09:00:23;100601.55;;;20.46;23.81
81999;BME280;71598;46.516;-122.928;2023-07-31T09:02:54;100598.54;;;20.04;23.81
81999;BME280;71598;46.516;-122.928;2023-07-31T09:05:14;100597.79;;;20.21;23.87
81999;BME280;71598;46.516;-122.928;2023-07-31T09:07:39;100595.42;;;19.81;23.82
81999;BME280;71598;46.516;-122.928;2023-07-31T09:10:05;100598.60;;;20.08;23.82
81999;BME280;71598;46.516;-122.928;2023-07-31T09:12:29;100598.89;;;19.95;23.82
81999;BME280;71598;46.516;-122.928;2023-07-31T09:14:54;100599.37;;;19.86;23.81
81999;BME280;71598;46.516;-122.928;2023-07-31T09:17:30;100596.25;;;20.07;23.73
81999;BME280;71598;46.516;-122.928;2023-07-31T09:19:45;100592.76;;;19.95;23.75
81999;BME280;71598;46.516;-122.928;2023-07-31T09:22:10;100591.87;;;20.08;23.80
81999;BME280;71598;46.516;-122.928;2023-07-31T09:24:36;100592.12;;;19.83;23.80
81999;BME280;71598;46.516;-122.928;2023-07-31T09:27:02;100592.15;;;19.95;23.76
81999;BME280;71598;46.516;-122.928;2023-07-31T09:29:27;100590.95;;;19.83;23.83
81999;BME280;71598;46.516;-122.928;2023-07-31T09:31:52;100589.57;;;19.83;23.71
81999;BME280;71598;46.516;-122.928;2023-07-31T09:34:17;100589.14;;;19.62;23.74
81999;BME280;71598;46.516;-122.928;2023-07-31T09:36:43;100585.33;;;19.80;23.82
81999;BME280;71598;46.516;-122.928;2023-07-31T09:39:09;100584.53;;;19.70;23.86
81999;BME280;71598;46.516;-122.928;2023-07-31T09:41:37;100582.09;;;19.86;23.83
81999;BME280;71598;46.516;-122.928;2023-07-31T09:43:59;100581.65;;;19.98;23.83
81999;BME280;71598;46.516;-122.928;2023-07-31T09:46:28;100581.21;;;19.85;23.88
81999;BME280;71598;46.516;-122.928;2023-07-31T09:48:50;100582.05;;;19.88;23.88
81999;BME280;71598;46.516;-122.928;2023-07-31T09:51:15;100583.52;;;19.79;24.01
81999;BME280;71598;46.516;-122.928;2023-07-31T09:53:41;100583.29;;;19.92;23.99
81999;BME280;71598;46.516;-122.928;2023-07-31T09:56:07;100581.11;;;20.02;23.99
81999;BME280;71598;46.516;-122.928;2023-07-31T09:58:35;100579.33;;;19.77;24.02
81999;BME280;71598;46.516;-122.928;2023-07-31T10:00:58;100579.85;;;19.75;24.02
81999;BME280;71598;46.516;-122.928;2023-07-31T10:03:22;100582.37;;;19.62;23.96
81999;BME280;71598;46.516;-122.928;2023-07-31T10:05:52;100582.84;;;19.71;23.96
81999;BME280;71598;46.516;-122.928;2023-07-31T10:08:15;100587.43;;;19.86;24.05
81999;BME280;71598;46.516;-122.928;2023-07-31T10:10:38;100587.19;;;19.81;24.02
81999;BME280;71598;46.516;-122.928;2023-07-31T10:13:05;100589.98;;;19.61;24.05
81999;BME280;71598;46.516;-122.928;2023-07-31T10:15:29;100589.52;;;19.63;24.03
81999;BME280;71598;46.516;-122.928;2023-07-31T10:17:54;100587.71;;;19.69;23.98
81999;BME280;71598;46.516;-122.928;2023-07-31T10:20:19;100588.72;;;19.77;24.01
81999;BME280;71598;46.516;-122.928;2023-07-31T10:22:45;100589.76;;;19.67;24.07
81999;BME280;71598;46.516;-122.928;2023-07-31T10:25:10;100592.91;;;19.90;24.09
81999;BME280;71598;46.516;-122.928;2023-07-31T10:27:36;100591.78;;;19.76;24.03
81999;BME280;71598;46.516;-122.928;2023-07-31T10:30:02;100592.81;;;19.55;24.15
81999;BME280;71598;46.516;-122.928;2023-07-31T10:32:27;100594.66;;;19.86;24.02
81999;BME280;71598;46.516;-122.928;2023-07-31T10:34:53;100594.47;;;19.54;24.03
81999;BME280;71598;46.516;-122.928;2023-07-31T10:37:23;100597.74;;;19.56;24.01
81999;BME280;71598;46.516;-122.928;2023-07-31T10:39:43;100598.51;;;19.42;24.04
81999;BME280;71598;46.516;-122.928;2023-07-31T10:42:13;100598.54;;;19.67;24.04
81999;BME280;71598;46.516;-122.928;2023-07-31T10:44:35;100598.17;;;19.85;24.07
81999;BME280;71598;46.516;-122.928;2023-07-31T10:47:01;100599.57;;;19.64;24.07
81999;BME280;71598;46.516;-122.928;2023-07-31T10:49:25;100603.34;;;19.82;24.03
81999;BME280;71598;46.516;-122.928;2023-07-31T10:51:51;100604.76;;;19.39;24.10
81999;BME280;71598;46.516;-122.928;2023-07-31T10:54:17;100603.97;;;19.71;24.10
81999;BME280;71598;46.516;-122.928;2023-07-31T10:56:45;100603.95;;;19.58;24.13
81999;BME280;71598;46.516;-122.928;2023-07-31T10:59:06;100602.46;;;19.41;24.10
81999;BME280;71598;46.516;-122.928;2023-07-31T11:01:51;100603.49;;;19.50;24.09
81999;BME280;71598;46.516;-122.928;2023-07-31T11:03:58;100602.43;;;19.67;24.10
81999;BME280;71598;46.516;-122.928;2023-07-31T11:06:29;100602.48;;;19.38;24.16
81999;BME280;71598;46.516;-122.928;2023-07-31T11:08:50;100601.10;;;19.72;24.06
81999;BME280;71598;46.516;-122.928;2023-07-31T11:11:15;100602.35;;;19.50;24.06
81999;BME280;71598;46.516;-122.928;2023-07-31T11:13:45;100602.06;;;19.56;24.08
81999;BME280;71598;46.516;-122.928;2023-07-31T11:16:05;100600.34;;;19.41;24.10
81999;BME280;71598;46.516;-122.928;2023-07-31T11:18:30;100600.91;;;19.32;24.12
81999;BME280;71598;46.516;-122.928;2023-07-31T11:20:55;100602.67;;;19.58;24.12
81999;BME280;71598;46.516;-122.928;2023-07-31T11:23:21;100601.81;;;19.59;24.11
81999;BME280;71598;46.516;-122.928;2023-07-31T11:25:47;100600.70;;;19.55;24.15
81999;BME280;71598;46.516;-122.928;2023-07-31T11:28:12;100605.90;;;19.38;24.10
81999;BME280;71598;46.516;-122.928;2023-07-31T11:30:37;100604.04;;;19.42;24.14
81999;BME280;71598;46.516;-122.928;2023-07-31T11:33:04;100603.89;;;19.49;24.14
81999;BME280;71598;46.516;-122.928;2023-07-31T11:35:27;100605.51;;;19.31;24.07
81999;BME280;71598;46.516;-122.928;2023-07-31T11:37:52;100609.22;;;19.41;24.13
81999;BME280;71598;46.516;-122.928;2023-07-31T11:40:19;100607.16;;;19.46;24.17
81999;BME280;71598;46.516;-122.928;2023-07-31T11:42:43;100608.69;;;19.08;24.15
81999;BME280;71598;46.516;-122.928;2023-07-31T11:45:09;100608.50;;;19.45;24.15
81999;BME280;71598;46.516;-122.928;2023-07-31T11:47:35;100607.25;;;19.32;24.16
81999;BME280;71598;46.516;-122.928;2023-07-31T11:50:00;100608.30;;;19.26;24.21
81999;BME280;71598;46.516;-122.928;2023-07-31T11:52:25;100606.22;;;19.48;24.15
81999;BME280;71598;46.516;-122.928;2023-07-31T11:54:50;100605.36;;;19.28;24.14
81999;BME280;71598;46.516;-122.928;2023-07-31T11:57:16;100608.64;;;19.35;24.10
81999;BME280;71598;46.516;-122.928;2023-07-31T11:59:40;100614.98;;;19.51;24.12
81999;BME280;71598;46.516;-122.928;2023-07-31T12:02:05;100613.24;;;19.34;24.15
81999;BME280;71598;46.516;-122.928;2023-07-31T12:04:31;100613.11;;;19.44;24.13
81999;BME280;71598;46.516;-122.928;2023-07-31T12:06:56;100612.93;;;19.51;24.13
81999;BME280;71598;46.516;-122.928;2023-07-31T12:09:21;100614.65;;;19.30;24.10